sensor_id;sensor_type;location;lat;lon;timestamp;P1;durP1;ratioP1;P2;durP2;ratioP2
705;SDS011;21234;48.690;9.016;2024-01-16T00:01:44;4.90;;;3.10;;
705;SDS011;21234;48.690;9.016;2024-01-16T00:04:13;6.70;;;3.40;;
705;SDS011;21234;48.690;9.016;2024-01-16T00:06:40;5.13;;;3.13;;
705;SDS011;21234;48.690;9.016;2024-01-16T00:09:07;5.10;;;3.60;;
705;SDS011;21234;48.690;9.016;2024-01-16T00:11:34;3.23;;;2.80;;
705;SDS011;21234;48.690;9.016;2024-01-16T00:14:05;4.83;;;3.00;;
705;SDS011;21234;48.690;9.016;2024-01-16T00:16:32;6.20;;;2.90;;
705;SDS011;21234;48.690;9.016;2024-01-16T00:18:59;5.63;;;2.90;;
705;SDS011;21234;48.690;9.016;2024-01-16T00:21:27;5.93;;;3.73;;
705;SDS011;21234;48.690;9.016;2024-01-16T00:23:54;5.50;;;3.20;;
705;SDS011;21234;48.690;9.016;2024-01-16T00:26:20;5.77;;;3.20;;
705;SDS011;21234;48.690;9.016;2024-01-16T00:28:47;5.33;;;3.70;;
705;SDS011;21234;48.690;9.016;2024-01-16T00:31:14;3.00;;;2.70;;
705;SDS011;21234;48.690;9.016;2024-01-16T00:33:41;3.97;;;2.70;;
705;SDS011;21234;48.690;9.016;2024-01-16T00:36:08;3.83;;;2.60;;
705;SDS011;21234;48.690;9.016;2024-01-16T00:38:36;5.80;;;3.77;;
705;SDS011;21234;48.690;9.016;2024-01-16T00:41:03;4.70;;;3.63;;
705;SDS011;21234;48.690;9.016;2024-01-16T00:43:30;5.23;;;4.47;;
705;SDS011;21234;48.690;9.016;2024-01-16T00:45:57;4.70;;;2.90;;
705;SDS011;21234;48.690;9.016;2024-01-16T00:48:23;5.30;;;3.40;;
705;SDS011;21234;48.690;9.016;2024-01-16T00:50:51;7.57;;;3.57;;
705;SDS011;21234;48.690;9.016;2024-01-16T00:53:18;3.13;;;2.40;;
705;SDS011;21234;48.690;9.016;2024-01-16T00:55:46;6.43;;;3.73;;
705;SDS011;21234;48.690;9.016;2024-01-16T00:58:13;6.03;;;3.47;;
705;SDS011;21234;48.690;9.016;2024-01-16T01:00:39;3.93;;;2.50;;
705;SDS011;21234;48.690;9.016;2024-01-16T01:03:06;7.73;;;3.20;;
705;SDS011;21234;48.690;9.016;2024-01-16T01:05:33;3.97;;;3.20;;
705;SDS011;21234;48.690;9.016;2024-01-16T01:08:00;7.23;;;4.17;;
705;SDS011;21234;48.690;9.016;2024-01-16T01:10:26;5.27;;;3.50;;
705;SDS011;21234;48.690;9.016;2024-01-16T01:12:54;8.50;;;3.20;;
705;SDS011;21234;48.690;9.016;2024-01-16T01:15:21;6.17;;;3.53;;
705;SDS011;21234;48.690;9.016;2024-01-16T01:17:48;4.83;;;3.00;;
705;SDS011;21234;48.690;9.016;2024-01-16T01:20:16;6.63;;;3.83;;
705;SDS011;21234;48.690;9.016;2024-01-16T01:22:44;4.00;;;3.17;;
705;SDS011;21234;48.690;9.016;2024-01-16T01:25:11;5.87;;;3.27;;
705;SDS011;21234;48.690;9.016;2024-01-16T01:27:38;4.80;;;3.27;;
705;SDS011;21234;48.690;9.016;2024-01-16T01:30:07;5.90;;;3.40;;
705;SDS011;21234;48.690;9.016;2024-01-16T01:32:35;4.57;;;3.10;;
705;SDS011;21234;48.690;9.016;2024-01-16T01:35:02;5.10;;;3.00;;
705;SDS011;21234;48.690;9.016;2024-01-16T01:37:29;4.70;;;3.27;;
705;SDS011;21234;48.690;9.016;2024-01-16T01:39:56;3.07;;;2.77;;
705;SDS011;21234;48.690;9.016;2024-01-16T01:42:23;5.20;;;3.47;;
705;SDS011;21234;48.690;9.016;2024-01-16T01:44:50;3.33;;;2.83;;
705;SDS011;21234;48.690;9.016;2024-01-16T01:47:18;8.10;;;3.53;;
705;SDS011;21234;48.690;9.016;2024-01-16T01:49:46;6.33;;;3.20;;
705;SDS011;21234;48.690;9.016;2024-01-16T01:52:12;5.70;;;4.07;;
705;SDS011;21234;48.690;9.016;2024-01-16T01:54:40;4.97;;;3.63;;
705;SDS011;21234;48.690;9.016;2024-01-16T01:57:07;3.23;;;2.93;;
705;SDS011;21234;48.690;9.016;2024-01-16T01:59:34;4.73;;;2.77;;
705;SDS011;21234;48.690;9.016;2024-01-16T02:02:02;2.70;;;1.97;;
705;SDS011;21234;48.690;9.016;2024-01-16T02:04:32;4.20;;;2.83;;
705;SDS011;21234;48.690;9.016;2024-01-16T02:07:00;2.97;;;1.90;;
705;SDS011;21234;48.690;9.016;2024-01-16T02:09:27;4.80;;;3.73;;
705;SDS011;21234;48.690;9.016;2024-01-16T02:11:54;3.80;;;3.00;;
705;SDS011;21234;48.690;9.016;2024-01-16T02:14:20;5.50;;;3.07;;
705;SDS011;21234;48.690;9.016;2024-01-16T02:16:47;5.37;;;3.00;;
705;SDS011;21234;48.690;9.016;2024-01-16T02:19:14;4.47;;;3.10;;
705;SDS011;21234;48.690;9.016;2024-01-16T02:21:43;3.97;;;3.10;;
705;SDS011;21234;48.690;9.016;2024-01-16T02:24:15;5.67;;;3.23;;
705;SDS011;21234;48.690;9.016;2024-01-16T02:26:43;3.60;;;2.50;;
705;SDS011;21234;48.690;9.016;2024-01-16T02:29:10;10.00;;;3.43;;
705;SDS011;21234;48.690;9.016;2024-01-16T02:31:37;4.40;;;2.70;;
705;SDS011;21234;48.690;9.016;2024-01-16T02:34:03;6.20;;;3.03;;
705;SDS011;21234;48.690;9.016;2024-01-16T02:36:30;4.80;;;3.20;;
705;SDS011;21234;48.690;9.016;2024-01-16T02:38:57;4.50;;;2.90;;
705;SDS011;21234;48.690;9.016;2024-01-16T02:41:25;4.00;;;2.47;;
705;SDS011;21234;48.690;9.016;2024-01-16T02:43:52;5.43;;;3.10;;
705;SDS011;21234;48.690;9.016;2024-01-16T02:46:19;5.80;;;2.60;;
705;SDS011;21234;48.690;9.016;2024-01-16T02:48:45;5.27;;;3.70;;
705;SDS011;21234;48.690;9.016;2024-01-16T02:51:12;5.40;;;3.40;;
705;SDS011;21234;48.690;9.016;2024-01-16T02:53:39;5.47;;;2.80;;
705;SDS011;21234;48.690;9.016;2024-01-16T02:56:05;5.90;;;3.00;;
705;SDS011;21234;48.690;9.016;2024-01-16T02:58:35;3.67;;;2.60;;
705;SDS011;21234;48.690;9.016;2024-01-16T03:01:01;3.80;;;2.60;;
705;SDS011;21234;48.690;9.016;2024-01-16T03:03:28;4.73;;;2.80;;
705;SDS011;21234;48.690;9.016;2024-01-16T03:05:55;4.77;;;2.63;;
705;SDS011;21234;48.690;9.016;2024-01-16T03:08:22;4.43;;;2.67;;
705;SDS011;21234;48.690;9.016;2024-01-16T03:10:48;3.43;;;2.80;;
705;SDS011;21234;48.690;9.016;2024-01-16T03:13:15;4.83;;;3.20;;
705;SDS011;21234;48.690;9.016;2024-01-16T03:15:44;6.17;;;2.13;;
705;SDS011;21234;48.690;9.016;2024-01-16T03:18:11;4.60;;;2.37;;
705;SDS011;21234;48.690;9.016;2024-01-16T03:20:37;5.33;;;3.00;;
705;SDS011;21234;48.690;9.016;2024-01-16T03:23:04;5.17;;;3.47;;
705;SDS011;21234;48.690;9.016;2024-01-16T03:25:31;4.30;;;2.63;;
705;SDS011;21234;48.690;9.016;2024-01-16T03:28:03;5.00;;;3.23;;
705;SDS011;21234;48.690;9.016;2024-01-16T03:30:32;4.30;;;2.50;;
705;SDS011;21234;48.690;9.016;2024-01-16T03:33:01;5.87;;;3.17;;
705;SDS011;21234;48.690;9.016;2024-01-16T03:35:28;5.27;;;2.70;;
705;SDS011;21234;48.690;9.016;2024-01-16T03:37:55;2.53;;;2.33;;
705;SDS011;21234;48.690;9.016;2024-01-16T03:40:21;4.23;;;2.70;;
705;SDS011;21234;48.690;9.016;2024-01-16T03:42:48;4.53;;;2.37;;
705;SDS011;21234;48.690;9.016;2024-01-16T03:45:15;6.20;;;3.20;;
705;SDS011;21234;48.690;9.016;2024-01-16T03:47:41;4.43;;;2.90;;
705;SDS011;21234;48.690;9.016;2024-01-16T03:50:10;3.43;;;2.40;;
705;SDS011;21234;48.690;9.016;2024-01-16T03:52:36;3.10;;;2.80;;
705;SDS011;21234;48.690;9.016;2024-01-16T03:55:03;2.70;;;2.50;;
705;SDS011;21234;48.690;9.016;2024-01-16T03:57:30;4.93;;;2.93;;
705;SDS011;21234;48.690;9.016;2024-01-16T03:59:57;5.83;;;2.47;;
705;SDS011;21234;48.690;9.016;2024-01-16T04:02:24;3.47;;;2.60;;
705;SDS011;21234;48.690;9.016;2024-01-16T04:04:51;3.30;;;2.47;;
705;SDS011;21234;48.690;9.016;2024-01-16T04:07:19;3.07;;;2.20;;
705;SDS011;21234;48.690;9.016;2024-01-16T04:09:48;3.40;;;2.00;;
705;SDS011;21234;48.690;9.016;2024-01-16T04:12:15;5.30;;;2.83;;
705;SDS011;21234;48.690;9.016;2024-01-16T04:14:41;7.00;;;2.60;;
705;SDS011;21234;48.690;9.016;2024-01-16T04:17:08;5.40;;;3.10;;
705;SDS011;21234;48.690;9.016;2024-01-16T04:19:35;3.10;;;2.10;;
705;SDS011;21234;48.690;9.016;2024-01-16T04:22:01;4.37;;;2.27;;
705;SDS011;21234;48.690;9.016;2024-01-16T04:24:31;4.13;;;2.77;;
705;SDS011;21234;48.690;9.016;2024-01-16T04:26:58;2.80;;;1.90;;
705;SDS011;21234;48.690;9.016;2024-01-16T04:29:24;3.80;;;2.57;;
705;SDS011;21234;48.690;9.016;2024-01-16T04:31:51;5.70;;;2.87;;
705;SDS011;21234;48.690;9.016;2024-01-16T04:34:18;5.00;;;2.40;;
705;SDS011;21234;48.690;9.016;2024-01-16T04:36:45;6.43;;;3.33;;
705;SDS011;21234;48.690;9.016;2024-01-16T04:39:11;6.20;;;2.80;;
705;SDS011;21234;48.690;9.016;2024-01-16T04:41:40;6.50;;;2.77;;
705;SDS011;21234;48.690;9.016;2024-01-16T04:44:06;4.37;;;2.17;;
705;SDS011;21234;48.690;9.016;2024-01-16T04:46:33;6.50;;;2.40;;
705;SDS011;21234;48.690;9.016;2024-01-16T04:49:00;5.00;;;2.50;;
705;SDS011;21234;48.690;9.016;2024-01-16T04:51:27;7.87;;;3.10;;
705;SDS011;21234;48.690;9.016;2024-01-16T04:53:53;4.10;;;2.97;;
705;SDS011;21234;48.690;9.016;2024-01-16T04:56:20;5.90;;;4.00;;
705;SDS011;21234;48.690;9.016;2024-01-16T04:58:48;3.93;;;2.73;;
705;SDS011;21234;48.690;9.016;2024-01-16T05:01:15;3.03;;;2.40;;
705;SDS011;21234;48.690;9.016;2024-01-16T05:03:42;4.23;;;2.63;;
705;SDS011;21234;48.690;9.016;2024-01-16T05:06:12;4.17;;;2.43;;
705;SDS011;21234;48.690;9.016;2024-01-16T05:08:39;5.17;;;2.93;;
705;SDS011;21234;48.690;9.016;2024-01-16T05:11:06;3.70;;;1.83;;
705;SDS011;21234;48.690;9.016;2024-01-16T05:13:33;4.77;;;2.47;;
705;SDS011;21234;48.690;9.016;2024-01-16T05:16:01;4.53;;;2.80;;
705;SDS011;21234;48.690;9.016;2024-01-16T05:18:28;3.90;;;3.10;;
705;SDS011;21234;48.690;9.016;2024-01-16T05:20:55;6.50;;;2.63;;
705;SDS011;21234;48.690;9.016;2024-01-16T05:23:22;4.00;;;2.57;;
705;SDS011;21234;48.690;9.016;2024-01-16T05:25:48;9.73;;;3.57;;
705;SDS011;21234;48.690;9.016;2024-01-16T05:28:15;4.57;;;3.40;;
705;SDS011;21234;48.690;9.016;2024-01-16T05:30:42;7.33;;;6.63;;
705;SDS011;21234;48.690;9.016;2024-01-16T05:33:11;3.90;;;3.40;;
705;SDS011;21234;48.690;9.016;2024-01-16T05:35:39;4.37;;;3.47;;
705;SDS011;21234;48.690;9.016;2024-01-16T05:38:06;4.77;;;2.87;;
705;SDS011;21234;48.690;9.016;2024-01-16T05:40:32;3.37;;;3.00;;
705;SDS011;21234;48.690;9.016;2024-01-16T05:42:59;4.23;;;3.33;;
705;SDS011;21234;48.690;9.016;2024-01-16T05:45:27;3.30;;;2.57;;
705;SDS011;21234;48.690;9.016;2024-01-16T05:47:55;3.70;;;2.67;;
705;SDS011;21234;48.690;9.016;2024-01-16T05:50:24;2.50;;;2.17;;
705;SDS011;21234;48.690;9.016;2024-01-16T05:52:50;4.43;;;2.80;;
705;SDS011;21234;48.690;9.016;2024-01-16T05:55:17;6.17;;;2.67;;
705;SDS011;21234;48.690;9.016;2024-01-16T05:57:46;4.20;;;2.63;;
705;SDS011;21234;48.690;9.016;2024-01-16T06:00:13;6.57;;;6.00;;
705;SDS011;21234;48.690;9.016;2024-01-16T06:02:43;4.23;;;2.87;;
705;SDS011;21234;48.690;9.016;2024-01-16T06:05:10;4.40;;;2.73;;
705;SDS011;21234;48.690;9.016;2024-01-16T06:07:38;5.57;;;2.03;;
705;SDS011;21234;48.690;9.016;2024-01-16T06:10:05;7.23;;;2.23;;
705;SDS011;21234;48.690;9.016;2024-01-16T06:12:33;6.00;;;2.83;;
705;SDS011;21234;48.690;9.016;2024-01-16T06:15:00;5.17;;;2.90;;
705;SDS011;21234;48.690;9.016;2024-01-16T06:17:27;3.37;;;3.07;;
705;SDS011;21234;48.690;9.016;2024-01-16T06:19:54;3.37;;;3.03;;
705;SDS011;21234;48.690;9.016;2024-01-16T06:22:21;2.60;;;2.03;;
705;SDS011;21234;48.690;9.016;2024-01-16T06:24:49;4.90;;;3.23;;
705;SDS011;21234;48.690;9.016;2024-01-16T06:27:16;4.63;;;2.73;;
705;SDS011;21234;48.690;9.016;2024-01-16T06:29:45;5.10;;;1.83;;
705;SDS011;21234;48.690;9.016;2024-01-16T06:32:11;6.23;;;3.13;;
705;SDS011;21234;48.690;9.016;2024-01-16T06:34:38;8.47;;;4.37;;
705;SDS011;21234;48.690;9.016;2024-01-16T06:37:05;2.67;;;1.87;;
705;SDS011;21234;48.690;9.016;2024-01-16T06:39:32;5.33;;;3.87;;
705;SDS011;21234;48.690;9.016;2024-01-16T06:42:00;1.83;;;1.63;;
705;SDS011;21234;48.690;9.016;2024-01-16T06:44:26;3.37;;;2.90;;
705;SDS011;21234;48.690;9.016;2024-01-16T06:46:53;4.53;;;3.67;;
705;SDS011;21234;48.690;9.016;2024-01-16T06:49:20;9.10;;;3.13;;
705;SDS011;21234;48.690;9.016;2024-01-16T06:51:46;5.33;;;3.03;;
705;SDS011;21234;48.690;9.016;2024-01-16T06:54:13;6.47;;;4.90;;
705;SDS011;21234;48.690;9.016;2024-01-16T06:56:40;4.97;;;3.50;;
705;SDS011;21234;48.690;9.016;2024-01-16T06:59:08;5.60;;;4.40;;
705;SDS011;21234;48.690;9.016;2024-01-16T07:01:34;4.07;;;2.57;;
705;SDS011;21234;48.690;9.016;2024-01-16T07:04:01;5.87;;;2.77;;
705;SDS011;21234;48.690;9.016;2024-01-16T07:06:28;4.90;;;3.93;;
705;SDS011;21234;48.690;9.016;2024-01-16T07:08:55;8.53;;;5.53;;
705;SDS011;21234;48.690;9.016;2024-01-16T07:11:21;6.70;;;4.13;;
705;SDS011;21234;48.690;9.016;2024-01-16T07:13:48;6.17;;;3.87;;
705;SDS011;21234;48.690;9.016;2024-01-16T07:16:16;5.27;;;3.60;;
705;SDS011;21234;48.690;9.016;2024-01-16T07:18:43;3.30;;;2.80;;
705;SDS011;21234;48.690;9.016;2024-01-16T07:21:16;2.80;;;2.20;;
705;SDS011;21234;48.690;9.016;2024-01-16T07:23:43;5.30;;;2.67;;
705;SDS011;21234;48.690;9.016;2024-01-16T07:26:10;3.63;;;2.50;;
705;SDS011;21234;48.690;9.016;2024-01-16T07:28:37;5.00;;;3.33;;
705;SDS011;21234;48.690;9.016;2024-01-16T07:31:03;4.33;;;2.57;;
705;SDS011;21234;48.690;9.016;2024-01-16T07:33:32;3.17;;;2.30;;
705;SDS011;21234;48.690;9.016;2024-01-16T07:35:59;4.67;;;3.57;;
705;SDS011;21234;48.690;9.016;2024-01-16T07:38:25;6.17;;;3.83;;
705;SDS011;21234;48.690;9.016;2024-01-16T07:40:52;3.83;;;3.10;;
705;SDS011;21234;48.690;9.016;2024-01-16T07:43:21;4.77;;;3.60;;
705;SDS011;21234;48.690;9.016;2024-01-16T07:45:48;7.30;;;4.17;;
705;SDS011;21234;48.690;9.016;2024-01-16T07:48:14;6.70;;;3.87;;
705;SDS011;21234;48.690;9.016;2024-01-16T07:50:42;7.97;;;4.40;;
705;SDS011;21234;48.690;9.016;2024-01-16T07:53:10;13.50;;;7.13;;
705;SDS011;21234;48.690;9.016;2024-01-16T07:55:37;27.27;;;12.60;;
705;SDS011;21234;48.690;9.016;2024-01-16T07:58:04;14.87;;;8.03;;
705;SDS011;21234;48.690;9.016;2024-01-16T08:00:31;36.80;;;15.70;;
705;SDS011;21234;48.690;9.016;2024-01-16T08:02:58;26.13;;;13.00;;
705;SDS011;21234;48.690;9.016;2024-01-16T08:05:25;12.07;;;6.50;;
705;SDS011;21234;48.690;9.016;2024-01-16T08:07:54;16.77;;;8.63;;
705;SDS011;21234;48.690;9.016;2024-01-16T08:10:20;11.70;;;6.77;;
705;SDS011;21234;48.690;9.016;2024-01-16T08:12:47;11.00;;;5.87;;
705;SDS011;21234;48.690;9.016;2024-01-16T08:15:14;10.77;;;6.90;;
705;SDS011;21234;48.690;9.016;2024-01-16T08:17:41;5.97;;;5.37;;
705;SDS011;21234;48.690;9.016;2024-01-16T08:20:08;7.67;;;4.93;;
705;SDS011;21234;48.690;9.016;2024-01-16T08:22:35;9.00;;;3.90;;
705;SDS011;21234;48.690;9.016;2024-01-16T08:25:04;8.03;;;2.77;;
705;SDS011;21234;48.690;9.016;2024-01-16T08:27:31;3.67;;;2.10;;
705;SDS011;21234;48.690;9.016;2024-01-16T08:29:58;6.77;;;3.90;;
705;SDS011;21234;48.690;9.016;2024-01-16T08:32:25;6.07;;;3.33;;
705;SDS011;21234;48.690;9.016;2024-01-16T08:34:52;2.93;;;2.60;;
705;SDS011;21234;48.690;9.016;2024-01-16T08:37:19;3.83;;;2.30;;
705;SDS011;21234;48.690;9.016;2024-01-16T08:39:46;3.93;;;2.30;;
705;SDS011;21234;48.690;9.016;2024-01-16T08:42:14;3.27;;;2.10;;
705;SDS011;21234;48.690;9.016;2024-01-16T08:44:40;4.03;;;1.50;;
705;SDS011;21234;48.690;9.016;2024-01-16T08:47:07;2.60;;;2.30;;
705;SDS011;21234;48.690;9.016;2024-01-16T08:49:34;3.10;;;1.93;;
705;SDS011;21234;48.690;9.016;2024-01-16T08:52:03;5.37;;;2.43;;
705;SDS011;21234;48.690;9.016;2024-01-16T08:54:30;3.70;;;2.67;;
705;SDS011;21234;48.690;9.016;2024-01-16T08:56:57;4.63;;;3.30;;
705;SDS011;21234;48.690;9.016;2024-01-16T08:59:25;2.50;;;1.80;;
705;SDS011;21234;48.690;9.016;2024-01-16T09:01:53;2.80;;;2.17;;
705;SDS011;21234;48.690;9.016;2024-01-16T09:04:20;2.47;;;1.77;;
705;SDS011;21234;48.690;9.016;2024-01-16T09:06:47;5.43;;;2.60;;
705;SDS011;21234;48.690;9.016;2024-01-16T09:09:14;6.13;;;4.77;;
705;SDS011;21234;48.690;9.016;2024-01-16T09:11:41;6.50;;;4.73;;
705;SDS011;21234;48.690;9.016;2024-01-16T09:14:08;7.40;;;3.43;;
705;SDS011;21234;48.690;9.016;2024-01-16T09:16:36;4.53;;;2.53;;
705;SDS011;21234;48.690;9.016;2024-01-16T09:19:03;16.77;;;8.40;;
705;SDS011;21234;48.690;9.016;2024-01-16T09:21:30;2.80;;;2.03;;
705;SDS011;21234;48.690;9.016;2024-01-16T09:23:57;3.07;;;2.30;;
705;SDS011;21234;48.690;9.016;2024-01-16T09:26:23;4.47;;;2.50;;
705;SDS011;21234;48.690;9.016;2024-01-16T09:28:50;3.10;;;2.50;;
705;SDS011;21234;48.690;9.016;2024-01-16T09:31:17;3.50;;;2.67;;
705;SDS011;21234;48.690;9.016;2024-01-16T09:33:45;5.00;;;2.20;;
705;SDS011;21234;48.690;9.016;2024-01-16T09:36:12;4.50;;;2.80;;
705;SDS011;21234;48.690;9.016;2024-01-16T09:38:38;8.97;;;3.30;;
705;SDS011;21234;48.690;9.016;2024-01-16T09:41:05;7.00;;;4.80;;
705;SDS011;21234;48.690;9.016;2024-01-16T09:43:32;4.83;;;3.03;;
705;SDS011;21234;48.690;9.016;2024-01-16T09:46:00;19.90;;;9.30;;
705;SDS011;21234;48.690;9.016;2024-01-16T09:48:27;8.53;;;6.53;;
705;SDS011;21234;48.690;9.016;2024-01-16T09:50:56;4.70;;;2.90;;
705;SDS011;21234;48.690;9.016;2024-01-16T09:53:23;3.60;;;2.40;;
705;SDS011;21234;48.690;9.016;2024-01-16T09:55:49;4.10;;;2.37;;
705;SDS011;21234;48.690;9.016;2024-01-16T09:58:19;4.13;;;3.20;;
705;SDS011;21234;48.690;9.016;2024-01-16T10:00:47;3.87;;;3.47;;
705;SDS011;21234;48.690;9.016;2024-01-16T10:03:15;5.23;;;3.07;;
705;SDS011;21234;48.690;9.016;2024-01-16T10:05:43;4.00;;;2.73;;
705;SDS011;21234;48.690;9.016;2024-01-16T10:08:12;5.67;;;2.93;;
705;SDS011;21234;48.690;9.016;2024-01-16T10:10:38;4.40;;;3.53;;
705;SDS011;21234;48.690;9.016;2024-01-16T10:13:06;3.17;;;2.57;;
705;SDS011;21234;48.690;9.016;2024-01-16T10:15:33;5.67;;;2.97;;
705;SDS011;21234;48.690;9.016;2024-01-16T10:18:01;5.53;;;3.37;;
705;SDS011;21234;48.690;9.016;2024-01-16T10:20:34;7.90;;;2.87;;
705;SDS011;21234;48.690;9.016;2024-01-16T10:23:01;6.00;;;3.60;;
705;SDS011;21234;48.690;9.016;2024-01-16T10:25:30;6.80;;;3.63;;
705;SDS011;21234;48.690;9.016;2024-01-16T10:28:04;6.10;;;3.20;;
705;SDS011;21234;48.690;9.016;2024-01-16T10:30:33;8.47;;;3.23;;
705;SDS011;21234;48.690;9.016;2024-01-16T10:33:11;6.10;;;2.77;;
705;SDS011;21234;48.690;9.016;2024-01-16T10:35:39;7.00;;;2.97;;
705;SDS011;21234;48.690;9.016;2024-01-16T10:38:06;4.80;;;2.80;;
705;SDS011;21234;48.690;9.016;2024-01-16T10:40:34;4.07;;;2.77;;
705;SDS011;21234;48.690;9.016;2024-01-16T10:43:01;5.20;;;3.33;;
705;SDS011;21234;48.690;9.016;2024-01-16T10:45:29;6.23;;;3.07;;
705;SDS011;21234;48.690;9.016;2024-01-16T10:48:02;5.10;;;2.90;;
705;SDS011;21234;48.690;9.016;2024-01-16T10:50:29;3.63;;;2.53;;
705;SDS011;21234;48.690;9.016;2024-01-16T10:52:55;4.00;;;3.40;;
705;SDS011;21234;48.690;9.016;2024-01-16T10:55:27;5.77;;;3.23;;
705;SDS011;21234;48.690;9.016;2024-01-16T10:57:56;5.93;;;3.07;;
705;SDS011;21234;48.690;9.016;2024-01-16T11:00:25;3.60;;;3.00;;
705;SDS011;21234;48.690;9.016;2024-01-16T11:02:54;6.67;;;2.57;;
705;SDS011;21234;48.690;9.016;2024-01-16T11:05:26;3.40;;;2.70;;
705;SDS011;21234;48.690;9.016;2024-01-16T11:07:56;3.57;;;3.00;;
705;SDS011;21234;48.690;9.016;2024-01-16T11:10:26;4.57;;;2.73;;
705;SDS011;21234;48.690;9.016;2024-01-16T11:12:54;3.30;;;2.87;;
705;SDS011;21234;48.690;9.016;2024-01-16T11:15:26;4.00;;;2.67;;
705;SDS011;21234;48.690;9.016;2024-01-16T11:17:54;5.57;;;3.20;;
705;SDS011;21234;48.690;9.016;2024-01-16T11:20:21;5.87;;;3.10;;
705;SDS011;21234;48.690;9.016;2024-01-16T11:22:50;4.93;;;2.73;;
705;SDS011;21234;48.690;9.016;2024-01-16T11:25:24;5.13;;;2.63;;
705;SDS011;21234;48.690;9.016;2024-01-16T11:28:01;4.37;;;2.17;;
705;SDS011;21234;48.690;9.016;2024-01-16T11:30:34;4.33;;;2.77;;
705;SDS011;21234;48.690;9.016;2024-01-16T11:33:02;3.77;;;2.23;;
705;SDS011;21234;48.690;9.016;2024-01-16T11:35:33;4.50;;;3.00;;
705;SDS011;21234;48.690;9.016;2024-01-16T11:38:05;4.40;;;2.03;;
705;SDS011;21234;48.690;9.016;2024-01-16T11:40:34;5.33;;;2.50;;
705;SDS011;21234;48.690;9.016;2024-01-16T11:46:02;3.17;;;2.10;;
705;SDS011;21234;48.690;9.016;2024-01-16T11:48:30;5.40;;;2.17;;
705;SDS011;21234;48.690;9.016;2024-01-16T11:50:57;3.90;;;2.33;;
705;SDS011;21234;48.690;9.016;2024-01-16T11:53:36;5.43;;;2.10;;
705;SDS011;21234;48.690;9.016;2024-01-16T11:56:13;4.50;;;2.77;;
705;SDS011;21234;48.690;9.016;2024-01-16T11:58:52;5.90;;;2.27;;
705;SDS011;21234;48.690;9.016;2024-01-16T12:01:29;3.43;;;2.50;;
705;SDS011;21234;48.690;9.016;2024-01-16T12:04:04;3.67;;;1.83;;
705;SDS011;21234;48.690;9.016;2024-01-16T12:06:31;11.90;;;2.70;;
705;SDS011;21234;48.690;9.016;2024-01-16T12:09:10;3.33;;;1.80;;
705;SDS011;21234;48.690;9.016;2024-01-16T12:11:38;5.20;;;2.00;;
705;SDS011;21234;48.690;9.016;2024-01-16T12:14:06;2.00;;;1.80;;
705;SDS011;21234;48.690;9.016;2024-01-16T12:16:32;2.70;;;1.87;;
705;SDS011;21234;48.690;9.016;2024-01-16T12:19:05;1.37;;;1.27;;
705;SDS011;21234;48.690;9.016;2024-01-16T12:21:33;2.20;;;1.20;;
705;SDS011;21234;48.690;9.016;2024-01-16T12:24:01;1.60;;;1.33;;
705;SDS011;21234;48.690;9.016;2024-01-16T12:26:29;3.20;;;1.67;;
705;SDS011;21234;48.690;9.016;2024-01-16T12:28:56;4.10;;;1.20;;
705;SDS011;21234;48.690;9.016;2024-01-16T12:31:24;3.30;;;1.80;;
705;SDS011;21234;48.690;9.016;2024-01-16T12:33:51;3.90;;;1.20;;
705;SDS011;21234;48.690;9.016;2024-01-16T12:36:18;3.40;;;1.10;;
705;SDS011;21234;48.690;9.016;2024-01-16T12:38:44;2.60;;;1.57;;
705;SDS011;21234;48.690;9.016;2024-01-16T12:41:20;2.13;;;1.10;;
705;SDS011;21234;48.690;9.016;2024-01-16T12:43:48;1.47;;;1.03;;
705;SDS011;21234;48.690;9.016;2024-01-16T12:46:16;2.27;;;1.67;;
705;SDS011;21234;48.690;9.016;2024-01-16T12:48:45;1.27;;;1.10;;
705;SDS011;21234;48.690;9.016;2024-01-16T12:51:19;3.90;;;1.30;;
705;SDS011;21234;48.690;9.016;2024-01-16T12:53:47;2.60;;;1.50;;
705;SDS011;21234;48.690;9.016;2024-01-16T12:56:17;2.00;;;1.47;;
705;SDS011;21234;48.690;9.016;2024-01-16T12:58:45;2.03;;;1.53;;
705;SDS011;21234;48.690;9.016;2024-01-16T13:01:21;1.93;;;1.63;;
705;SDS011;21234;48.690;9.016;2024-01-16T13:03:51;4.10;;;1.60;;
705;SDS011;21234;48.690;9.016;2024-01-16T13:06:18;1.23;;;1.13;;
705;SDS011;21234;48.690;9.016;2024-01-16T13:08:46;2.30;;;1.33;;
705;SDS011;21234;48.690;9.016;2024-01-16T13:11:13;3.90;;;1.07;;
705;SDS011;21234;48.690;9.016;2024-01-16T13:13:44;4.67;;;1.80;;
705;SDS011;21234;48.690;9.016;2024-01-16T13:16:12;3.13;;;1.43;;
705;SDS011;21234;48.690;9.016;2024-01-16T13:18:38;2.10;;;1.60;;
705;SDS011;21234;48.690;9.016;2024-01-16T13:21:06;5.93;;;1.20;;
705;SDS011;21234;48.690;9.016;2024-01-16T13:23:33;1.87;;;1.20;;
705;SDS011;21234;48.690;9.016;2024-01-16T13:26:00;1.87;;;1.50;;
705;SDS011;21234;48.690;9.016;2024-01-16T13:28:28;1.83;;;1.03;;
705;SDS011;21234;48.690;9.016;2024-01-16T13:30:55;1.57;;;1.17;;
705;SDS011;21234;48.690;9.016;2024-01-16T13:33:23;2.37;;;1.10;;
705;SDS011;21234;48.690;9.016;2024-01-16T13:35:52;1.20;;;1.10;;
705;SDS011;21234;48.690;9.016;2024-01-16T13:38:21;1.63;;;1.53;;
705;SDS011;21234;48.690;9.016;2024-01-16T13:40:48;0.90;;;0.70;;
705;SDS011;21234;48.690;9.016;2024-01-16T13:43:15;2.40;;;1.40;;
705;SDS011;21234;48.690;9.016;2024-01-16T13:45:42;2.77;;;1.60;;
705;SDS011;21234;48.690;9.016;2024-01-16T13:48:09;2.90;;;2.20;;
705;SDS011;21234;48.690;9.016;2024-01-16T13:50:35;3.37;;;1.47;;
705;SDS011;21234;48.690;9.016;2024-01-16T13:53:02;3.03;;;1.53;;
705;SDS011;21234;48.690;9.016;2024-01-16T13:55:30;6.57;;;2.37;;
705;SDS011;21234;48.690;9.016;2024-01-16T13:57:58;4.77;;;2.20;;
705;SDS011;21234;48.690;9.016;2024-01-16T14:00:25;1.90;;;1.47;;
705;SDS011;21234;48.690;9.016;2024-01-16T14:02:51;4.07;;;2.40;;
705;SDS011;21234;48.690;9.016;2024-01-16T14:05:20;3.27;;;2.63;;
705;SDS011;21234;48.690;9.016;2024-01-16T14:07:48;2.97;;;2.40;;
705;SDS011;21234;48.690;9.016;2024-01-16T14:10:17;2.43;;;1.43;;
705;SDS011;21234;48.690;9.016;2024-01-16T14:12:48;2.40;;;1.87;;
705;SDS011;21234;48.690;9.016;2024-01-16T14:15:18;4.13;;;1.93;;
705;SDS011;21234;48.690;9.016;2024-01-16T14:17:50;2.07;;;1.87;;
705;SDS011;21234;48.690;9.016;2024-01-16T14:20:20;4.43;;;2.27;;
705;SDS011;21234;48.690;9.016;2024-01-16T14:22:49;2.13;;;1.93;;
705;SDS011;21234;48.690;9.016;2024-01-16T14:25:18;2.00;;;1.80;;
705;SDS011;21234;48.690;9.016;2024-01-16T14:27:57;3.50;;;2.20;;
705;SDS011;21234;48.690;9.016;2024-01-16T14:30:28;4.20;;;2.97;;
705;SDS011;21234;48.690;9.016;2024-01-16T14:32:55;3.80;;;2.40;;
705;SDS011;21234;48.690;9.016;2024-01-16T14:35:22;4.57;;;2.53;;
705;SDS011;21234;48.690;9.016;2024-01-16T14:37:50;3.67;;;2.33;;
705;SDS011;21234;48.690;9.016;2024-01-16T14:40:17;4.47;;;3.07;;
705;SDS011;21234;48.690;9.016;2024-01-16T14:42:50;3.77;;;2.60;;
705;SDS011;21234;48.690;9.016;2024-01-16T14:45:20;5.83;;;3.10;;
705;SDS011;21234;48.690;9.016;2024-01-16T14:47:47;5.03;;;2.67;;
705;SDS011;21234;48.690;9.016;2024-01-16T14:50:14;2.53;;;2.10;;
705;SDS011;21234;48.690;9.016;2024-01-16T14:52:42;5.40;;;3.43;;
705;SDS011;21234;48.690;9.016;2024-01-16T14:55:09;2.27;;;2.07;;
705;SDS011;21234;48.690;9.016;2024-01-16T14:57:37;4.97;;;2.43;;
705;SDS011;21234;48.690;9.016;2024-01-16T15:00:08;3.87;;;2.90;;
705;SDS011;21234;48.690;9.016;2024-01-16T15:02:41;4.10;;;2.37;;
705;SDS011;21234;48.690;9.016;2024-01-16T15:05:08;3.50;;;2.50;;
705;SDS011;21234;48.690;9.016;2024-01-16T15:07:37;4.37;;;2.27;;
705;SDS011;21234;48.690;9.016;2024-01-16T15:10:05;5.17;;;2.97;;
705;SDS011;21234;48.690;9.016;2024-01-16T15:12:34;4.27;;;2.50;;
705;SDS011;21234;48.690;9.016;2024-01-16T15:15:01;5.23;;;2.83;;
705;SDS011;21234;48.690;9.016;2024-01-16T15:17:28;4.80;;;2.93;;
705;SDS011;21234;48.690;9.016;2024-01-16T15:19:56;4.77;;;3.03;;
705;SDS011;21234;48.690;9.016;2024-01-16T15:22:23;3.67;;;3.20;;